Tukiboshimaru — JI3695 — position and weather

sailwx.info

Track history (hours):
 
Tides and Currents Weather Stations Pressure Air Temp Water Temp Dewpoint Dewpoint Depression Visibility Wind Speed Wind Dir Waves Ship Positions

Tukiboshimaru

Last reported at 2018-Jun-18 09:26 UTC. Time now 2018-Jun-18 13:03 UTC.
Position N 34°36' E 135°06'.

Length 84 m.

Type: Ship. MMSI: 431301596.

Date/timePositionNaut miles runAvg speedWind from/ knotsBaromVisibWave heightAir tempDewpointWater temp
2018-Jun-18 09:26N 34°36' E 135°06'511.6
2018-Jun-18 09:00N 34°36' E 135°12'712.2
2018-Jun-18 08:28N 34°36' E 135°20'3 0.3
2018-Jun-17 22:23N 34°36' E 135°23'2 3.9
2018-Jun-17 21:54N 34°35' E 135°21'510.9
2018-Jun-17 21:28N 34°35' E 135°15'511.1
2018-Jun-17 21:00N 34°34' E 135°09'2011.8
2018-Jun-17 19:18N 34°31' E 134°45'311.4
2018-Jun-17 19:00N 34°30' E 134°41'611.7
2018-Jun-17 18:29N 34°28' E 134°34'611.7
2018-Jun-17 18:00N 34°26' E 134°28'33 1.0
2018-Jun-16 07:40N 34°36' E 135°05'311.1
2018-Jun-16 07:25N 34°36' E 135°09'511.0
2018-Jun-16 07:00N 34°36' E 135°14'611.2
2018-Jun-16 06:29N 34°36' E 135°21'3 0.4
2018-Jun-15 21:57N 34°36' E 135°25'4 8.4
2018-Jun-15 21:30N 34°36' E 135°20'5 9.8
2018-Jun-15 21:00N 34°35' E 135°15'510.8
2018-Jun-15 20:30N 34°35' E 135°08'2012.3
2018-Jun-15 18:54N 34°32' E 134°45'511.7
2018-Jun-15 18:26N 34°29' E 134°39'511.6
2018-Jun-15 18:00N 34°28' E 134°33'31 0.9
2018-Jun-14 08:09N 34°36' E 135°09'211.5
2018-Jun-14 08:00N 34°36' E 135°11'611.3
2018-Jun-14 07:30N 34°36' E 135°18'2 0.3
2018-Jun-13 23:37N 34°36' E 135°21'211.4
2018-Jun-13 23:29N 34°36' E 135°19'611.1
2018-Jun-13 22:55N 34°35' E 135°11'511.5
2018-Jun-13 22:28N 34°35' E 135°05'17 9.4
2018-Jun-13 20:38N 34°31' E 134°44'211.3
2018-Jun-13 20:29N 34°31' E 134°42'611.2
2018-Jun-13 19:57N 34°29' E 134°36'811.3
2018-Jun-13 19:17N 34°26' E 134°27'32 0.9
2018-Jun-12 09:07N 34°36' E 135°04'511.7
2018-Jun-12 08:44N 34°36' E 135°09'311.8
2018-Jun-12 08:30N 34°36' E 135°12'611.6
2018-Jun-12 08:00N 34°36' E 135°19'1 0.1
2018-Jun-12 00:20N 34°36' E 135°19'411.2
2018-Jun-11 23:57N 34°35' E 135°14'611.2
2018-Jun-11 23:25N 34°35' E 135°06'18 9.1
2018-Jun-11 21:24N 34°32' E 134°45'510.8
2018-Jun-11 20:58N 34°30' E 134°39'511.1
2018-Jun-11 20:30N 34°28' E 134°34'9 0.3
2018-Jun-10 12:00N 34°33' E 134°43'2112.8
2018-Jun-10 10:20N 34°36' E 135°09'412.7
2018-Jun-10 09:59N 34°36' E 135°14'612.5
2018-Jun-10 09:30N 34°36' E 135°21'1 0.2
2018-Jun-10 00:49N 34°36' E 135°23'3 5.3
2018-Jun-10 00:16N 34°36' E 135°19'311.4
2018-Jun-10 00:00N 34°35' E 135°16'611.4
2018-Jun-09 23:29N 34°35' E 135°09'1610.3
2018-Jun-09 21:57N 34°33' E 134°50'510.6
2018-Jun-09 21:30N 34°32' E 134°44'710.9
2018-Jun-09 20:52N 34°29' E 134°36'410.9
2018-Jun-09 20:29N 34°27' E 134°32'27 0.8
2018-Jun-08 10:34N 34°36' E 135°03'310.9
2018-Jun-08 10:18N 34°36' E 135°07'411.7
2018-Jun-08 10:00N 34°36' E 135°11'612.0
2018-Jun-08 09:30N 34°36' E 135°18'  
Track history (hours):
 
Tides and Currents Weather Stations Pressure Air Temp Water Temp Dewpoint Dewpoint Depression Visibility Wind Speed Wind Dir Waves Ship Positions

Tukiboshimaru

Last reported at 2018-Jun-18 09:26 UTC. Time now 2018-Jun-18 13:03 UTC.
Position N 34°36' E 135°06'.

Length 84 m.

Type: Ship. MMSI: 431301596.

Date/timePositionNaut miles runAvg speedWind from/ knotsBaromVisibWave heightAir tempDewpointWater temp
2018-Jun-18 09:26N 34°36' E 135°06'511.6
2018-Jun-18 09:00N 34°36' E 135°12'712.2
2018-Jun-18 08:28N 34°36' E 135°20'3 0.3
2018-Jun-17 22:23N 34°36' E 135°23'2 3.9
2018-Jun-17 21:54N 34°35' E 135°21'510.9
2018-Jun-17 21:28N 34°35' E 135°15'511.1
2018-Jun-17 21:00N 34°34' E 135°09'2011.8
2018-Jun-17 19:18N 34°31' E 134°45'311.4
2018-Jun-17 19:00N 34°30' E 134°41'611.7
2018-Jun-17 18:29N 34°28' E 134°34'611.7
2018-Jun-17 18:00N 34°26' E 134°28'33 1.0
2018-Jun-16 07:40N 34°36' E 135°05'311.1
2018-Jun-16 07:25N 34°36' E 135°09'511.0
2018-Jun-16 07:00N 34°36' E 135°14'611.2
2018-Jun-16 06:29N 34°36' E 135°21'3 0.4
2018-Jun-15 21:57N 34°36' E 135°25'4 8.4
2018-Jun-15 21:30N 34°36' E 135°20'5 9.8
2018-Jun-15 21:00N 34°35' E 135°15'510.8
2018-Jun-15 20:30N 34°35' E 135°08'2012.3
2018-Jun-15 18:54N 34°32' E 134°45'511.7
2018-Jun-15 18:26N 34°29' E 134°39'511.6
2018-Jun-15 18:00N 34°28' E 134°33'31 0.9
2018-Jun-14 08:09N 34°36' E 135°09'211.5
2018-Jun-14 08:00N 34°36' E 135°11'611.3
2018-Jun-14 07:30N 34°36' E 135°18'2 0.3
2018-Jun-13 23:37N 34°36' E 135°21'211.4
2018-Jun-13 23:29N 34°36' E 135°19'611.1
2018-Jun-13 22:55N 34°35' E 135°11'511.5
2018-Jun-13 22:28N 34°35' E 135°05'17 9.4
2018-Jun-13 20:38N 34°31' E 134°44'211.3
2018-Jun-13 20:29N 34°31' E 134°42'611.2
2018-Jun-13 19:57N 34°29' E 134°36'811.3
2018-Jun-13 19:17N 34°26' E 134°27'32 0.9
2018-Jun-12 09:07N 34°36' E 135°04'511.7
2018-Jun-12 08:44N 34°36' E 135°09'311.8
2018-Jun-12 08:30N 34°36' E 135°12'611.6
2018-Jun-12 08:00N 34°36' E 135°19'1 0.1
2018-Jun-12 00:20N 34°36' E 135°19'411.2
2018-Jun-11 23:57N 34°35' E 135°14'611.2
2018-Jun-11 23:25N 34°35' E 135°06'18 9.1
2018-Jun-11 21:24N 34°32' E 134°45'510.8
2018-Jun-11 20:58N 34°30' E 134°39'511.1
2018-Jun-11 20:30N 34°28' E 134°34'9 0.3
2018-Jun-10 12:00N 34°33' E 134°43'2112.8
2018-Jun-10 10:20N 34°36' E 135°09'412.7
2018-Jun-10 09:59N 34°36' E 135°14'612.5
2018-Jun-10 09:30N 34°36' E 135°21'1 0.2
2018-Jun-10 00:49N 34°36' E 135°23'3 5.3
2018-Jun-10 00:16N 34°36' E 135°19'311.4
2018-Jun-10 00:00N 34°35' E 135°16'611.4
2018-Jun-09 23:29N 34°35' E 135°09'1610.3
2018-Jun-09 21:57N 34°33' E 134°50'510.6
2018-Jun-09 21:30N 34°32' E 134°44'710.9
2018-Jun-09 20:52N 34°29' E 134°36'410.9
2018-Jun-09 20:29N 34°27' E 134°32'27 0.8
2018-Jun-08 10:34N 34°36' E 135°03'310.9
2018-Jun-08 10:18N 34°36' E 135°07'411.7
2018-Jun-08 10:00N 34°36' E 135°11'612.0
2018-Jun-08 09:30N 34°36' E 135°18'  

Dump ship's entire track history